sensor_id;sensor_type;location;lat;lon;timestamp;temperature;humidity
45115;DHT22;30877;43.706;10.780;2023-10-19T00:01:27;19.30;96.70
45115;DHT22;30877;43.706;10.780;2023-10-19T00:03:57;19.30;96.70
45115;DHT22;30877;43.706;10.780;2023-10-19T00:06:27;19.30;96.70
45115;DHT22;30877;43.706;10.780;2023-10-19T00:08:55;19.30;96.70
45115;DHT22;30877;43.706;10.780;2023-10-19T00:11:23;19.30;96.70
45115;DHT22;30877;43.706;10.780;2023-10-19T00:13:54;19.30;96.70
45115;DHT22;30877;43.706;10.780;2023-10-19T00:16:22;19.30;96.70
45115;DHT22;30877;43.706;10.780;2023-10-19T00:18:50;19.30;96.70
45115;DHT22;30877;43.706;10.780;2023-10-19T00:21:21;19.30;96.70
45115;DHT22;30877;43.706;10.780;2023-10-19T00:23:54;19.30;96.70
45115;DHT22;30877;43.706;10.780;2023-10-19T00:26:26;19.30;96.70
45115;DHT22;30877;43.706;10.780;2023-10-19T00:28:59;19.30;96.70
45115;DHT22;30877;43.706;10.780;2023-10-19T00:31:33;19.30;96.70
45115;DHT22;30877;43.706;10.780;2023-10-19T00:34:03;19.30;96.70
45115;DHT22;30877;43.706;10.780;2023-10-19T00:36:33;19.30;96.70
45115;DHT22;30877;43.706;10.780;2023-10-19T00:39:01;19.30;96.70
45115;DHT22;30877;43.706;10.780;2023-10-19T00:41:41;19.30;96.70
45115;DHT22;30877;43.706;10.780;2023-10-19T00:44:10;19.40;96.70
45115;DHT22;30877;43.706;10.780;2023-10-19T00:46:39;19.40;96.70
45115;DHT22;30877;43.706;10.780;2023-10-19T00:49:12;19.40;96.70
45115;DHT22;30877;43.706;10.780;2023-10-19T00:51:47;19.40;96.70
45115;DHT22;30877;43.706;10.780;2023-10-19T00:54:25;19.40;96.70
45115;DHT22;30877;43.706;10.780;2023-10-19T00:56:55;19.40;96.70
45115;DHT22;30877;43.706;10.780;2023-10-19T00:59:26;19.40;96.70
45115;DHT22;30877;43.706;10.780;2023-10-19T01:02:06;19.40;96.70
45115;DHT22;30877;43.706;10.780;2023-10-19T01:04:57;19.40;96.70
45115;DHT22;30877;43.706;10.780;2023-10-19T01:07:35;19.50;96.70
45115;DHT22;30877;43.706;10.780;2023-10-19T01:10:08;19.50;96.70
45115;DHT22;30877;43.706;10.780;2023-10-19T01:12:36;19.50;96.70
45115;DHT22;30877;43.706;10.780;2023-10-19T01:15:09;19.50;96.70
45115;DHT22;30877;43.706;10.780;2023-10-19T01:17:46;19.50;96.70
45115;DHT22;30877;43.706;10.780;2023-10-19T01:20:20;19.50;96.70
45115;DHT22;30877;43.706;10.780;2023-10-19T01:22:52;19.40;96.70
45115;DHT22;30877;43.706;10.780;2023-10-19T01:25:42;19.40;96.70
45115;DHT22;30877;43.706;10.780;2023-10-19T01:28:27;19.40;96.70
45115;DHT22;30877;43.706;10.780;2023-10-19T01:31:13;19.40;96.70
45115;DHT22;30877;43.706;10.780;2023-10-19T01:33:58;19.30;96.70
45115;DHT22;30877;43.706;10.780;2023-10-19T01:36:29;19.30;96.70
45115;DHT22;30877;43.706;10.780;2023-10-19T01:39:02;19.40;96.70
45115;DHT22;30877;43.706;10.780;2023-10-19T01:41:38;19.30;96.70
45115;DHT22;30877;43.706;10.780;2023-10-19T01:44:09;19.30;96.70
45115;DHT22;30877;43.706;10.780;2023-10-19T01:46:42;19.30;96.70
45115;DHT22;30877;43.706;10.780;2023-10-19T01:49:15;19.30;96.70
45115;DHT22;30877;43.706;10.780;2023-10-19T01:51:54;19.40;96.70
45115;DHT22;30877;43.706;10.780;2023-10-19T01:54:25;19.30;96.70
45115;DHT22;30877;43.706;10.780;2023-10-19T01:56:55;19.30;96.70
45115;DHT22;30877;43.706;10.780;2023-10-19T01:59:26;19.30;96.70
45115;DHT22;30877;43.706;10.780;2023-10-19T02:01:55;19.30;96.70
45115;DHT22;30877;43.706;10.780;2023-10-19T02:04:25;19.30;96.70
45115;DHT22;30877;43.706;10.780;2023-10-19T02:06:54;19.30;96.70
45115;DHT22;30877;43.706;10.780;2023-10-19T02:09:23;19.20;96.70
45115;DHT22;30877;43.706;10.780;2023-10-19T02:11:55;19.20;96.70
45115;DHT22;30877;43.706;10.780;2023-10-19T02:14:27;19.30;96.70
45115;DHT22;30877;43.706;10.780;2023-10-19T02:17:00;19.30;96.70
45115;DHT22;30877;43.706;10.780;2023-10-19T02:19:29;19.30;96.70
45115;DHT22;30877;43.706;10.780;2023-10-19T02:21:59;19.30;96.70
45115;DHT22;30877;43.706;10.780;2023-10-19T02:24:33;19.30;96.70
45115;DHT22;30877;43.706;10.780;2023-10-19T02:27:01;19.40;96.70
45115;DHT22;30877;43.706;10.780;2023-10-19T02:29:29;19.30;96.70
45115;DHT22;30877;43.706;10.780;2023-10-19T02:31:58;19.40;96.70
45115;DHT22;30877;43.706;10.780;2023-10-19T02:34:32;19.40;96.70
45115;DHT22;30877;43.706;10.780;2023-10-19T02:37:00;19.40;96.70
45115;DHT22;30877;43.706;10.780;2023-10-19T02:39:29;19.40;96.70
45115;DHT22;30877;43.706;10.780;2023-10-19T02:41:58;19.40;96.70
45115;DHT22;30877;43.706;10.780;2023-10-19T02:44:29;19.40;96.70
45115;DHT22;30877;43.706;10.780;2023-10-19T02:46:58;19.40;96.70
45115;DHT22;30877;43.706;10.780;2023-10-19T02:49:29;19.40;96.70
45115;DHT22;30877;43.706;10.780;2023-10-19T02:51:58;19.40;96.70
45115;DHT22;30877;43.706;10.780;2023-10-19T02:54:32;19.40;96.70
45115;DHT22;30877;43.706;10.780;2023-10-19T02:57:04;19.40;96.70
45115;DHT22;30877;43.706;10.780;2023-10-19T02:59:38;19.40;96.70
45115;DHT22;30877;43.706;10.780;2023-10-19T03:02:08;19.40;96.70
45115;DHT22;30877;43.706;10.780;2023-10-19T03:04:45;19.40;96.70
45115;DHT22;30877;43.706;10.780;2023-10-19T03:07:14;19.40;96.70
45115;DHT22;30877;43.706;10.780;2023-10-19T03:09:43;19.40;96.70
45115;DHT22;30877;43.706;10.780;2023-10-19T03:12:22;19.40;96.70
45115;DHT22;30877;43.706;10.780;2023-10-19T03:14:54;19.40;96.70
45115;DHT22;30877;43.706;10.780;2023-10-19T03:17:22;19.40;96.70
45115;DHT22;30877;43.706;10.780;2023-10-19T03:19:53;19.40;96.70
45115;DHT22;30877;43.706;10.780;2023-10-19T03:22:22;19.40;96.70
45115;DHT22;30877;43.706;10.780;2023-10-19T03:24:50;19.40;96.70
45115;DHT22;30877;43.706;10.780;2023-10-19T03:27:29;19.40;96.70
45115;DHT22;30877;43.706;10.780;2023-10-19T03:29:57;19.40;96.70
45115;DHT22;30877;43.706;10.780;2023-10-19T03:32:27;19.40;96.70
45115;DHT22;30877;43.706;10.780;2023-10-19T03:35:00;19.40;96.70
45115;DHT22;30877;43.706;10.780;2023-10-19T03:37:30;19.40;96.70
45115;DHT22;30877;43.706;10.780;2023-10-19T03:39:59;19.30;96.70
45115;DHT22;30877;43.706;10.780;2023-10-19T03:42:32;19.20;96.70
45115;DHT22;30877;43.706;10.780;2023-10-19T03:45:05;19.10;96.70
45115;DHT22;30877;43.706;10.780;2023-10-19T03:47:40;19.10;96.70
45115;DHT22;30877;43.706;10.780;2023-10-19T03:50:11;19.10;96.70
45115;DHT22;30877;43.706;10.780;2023-10-19T03:52:47;19.10;96.70
45115;DHT22;30877;43.706;10.780;2023-10-19T03:55:16;19.00;96.70
45115;DHT22;30877;43.706;10.780;2023-10-19T03:57:48;19.00;96.70
45115;DHT22;30877;43.706;10.780;2023-10-19T04:00:23;19.00;96.70
45115;DHT22;30877;43.706;10.780;2023-10-19T04:02:58;19.00;96.70
45115;DHT22;30877;43.706;10.780;2023-10-19T04:05:26;19.00;96.70
45115;DHT22;30877;43.706;10.780;2023-10-19T04:07:56;19.00;96.70
45115;DHT22;30877;43.706;10.780;2023-10-19T04:10:25;19.00;96.70
45115;DHT22;30877;43.706;10.780;2023-10-19T04:13:06;19.00;96.70
45115;DHT22;30877;43.706;10.780;2023-10-19T04:15:40;19.00;96.70
45115;DHT22;30877;43.706;10.780;2023-10-19T04:18:09;19.00;96.70
45115;DHT22;30877;43.706;10.780;2023-10-19T04:20:38;18.90;96.70
45115;DHT22;30877;43.706;10.780;2023-10-19T04:23:18;18.90;96.70
45115;DHT22;30877;43.706;10.780;2023-10-19T04:25:46;18.90;96.70
45115;DHT22;30877;43.706;10.780;2023-10-19T04:28:16;18.80;96.70
45115;DHT22;30877;43.706;10.780;2023-10-19T04:30:49;18.80;96.70
45115;DHT22;30877;43.706;10.780;2023-10-19T04:33:17;18.80;96.70
45115;DHT22;30877;43.706;10.780;2023-10-19T04:35:46;18.80;96.70
45115;DHT22;30877;43.706;10.780;2023-10-19T04:38:20;18.70;96.70
45115;DHT22;30877;43.706;10.780;2023-10-19T04:40:48;18.70;96.70
45115;DHT22;30877;43.706;10.780;2023-10-19T04:43:17;18.60;96.70
45115;DHT22;30877;43.706;10.780;2023-10-19T04:45:46;18.60;96.70
45115;DHT22;30877;43.706;10.780;2023-10-19T04:48:14;18.60;96.70
45115;DHT22;30877;43.706;10.780;2023-10-19T04:50:42;18.60;96.70
45115;DHT22;30877;43.706;10.780;2023-10-19T04:53:10;18.60;96.70
45115;DHT22;30877;43.706;10.780;2023-10-19T04:55:38;18.60;96.70
45115;DHT22;30877;43.706;10.780;2023-10-19T04:58:06;18.60;96.70
45115;DHT22;30877;43.706;10.780;2023-10-19T05:00:36;18.60;96.70
45115;DHT22;30877;43.706;10.780;2023-10-19T05:03:05;18.60;96.70
45115;DHT22;30877;43.706;10.780;2023-10-19T05:05:34;18.60;96.70
45115;DHT22;30877;43.706;10.780;2023-10-19T05:08:04;18.60;96.70
45115;DHT22;30877;43.706;10.780;2023-10-19T05:10:32;18.60;96.70
45115;DHT22;30877;43.706;10.780;2023-10-19T05:13:01;18.60;96.70
45115;DHT22;30877;43.706;10.780;2023-10-19T05:15:29;18.60;96.70
45115;DHT22;30877;43.706;10.780;2023-10-19T05:17:59;18.60;96.70
45115;DHT22;30877;43.706;10.780;2023-10-19T05:20:27;18.70;96.70
45115;DHT22;30877;43.706;10.780;2023-10-19T05:22:55;18.60;96.70
45115;DHT22;30877;43.706;10.780;2023-10-19T05:25:23;18.70;96.70
45115;DHT22;30877;43.706;10.780;2023-10-19T05:27:51;18.70;96.70
45115;DHT22;30877;43.706;10.780;2023-10-19T05:30:19;18.70;96.70
45115;DHT22;30877;43.706;10.780;2023-10-19T05:32:51;18.70;96.70
45115;DHT22;30877;43.706;10.780;2023-10-19T05:35:21;18.70;96.70
45115;DHT22;30877;43.706;10.780;2023-10-19T05:37:54;18.70;96.70
45115;DHT22;30877;43.706;10.780;2023-10-19T05:40:24;18.70;96.70
45115;DHT22;30877;43.706;10.780;2023-10-19T05:42:58;18.70;96.70
45115;DHT22;30877;43.706;10.780;2023-10-19T05:45:27;18.70;96.70
45115;DHT22;30877;43.706;10.780;2023-10-19T05:47:56;18.70;96.70
45115;DHT22;30877;43.706;10.780;2023-10-19T05:50:29;18.70;96.70
45115;DHT22;30877;43.706;10.780;2023-10-19T05:52:57;18.70;96.70
45115;DHT22;30877;43.706;10.780;2023-10-19T05:55:26;18.70;96.70
45115;DHT22;30877;43.706;10.780;2023-10-19T05:57:54;18.60;96.70
45115;DHT22;30877;43.706;10.780;2023-10-19T06:00:22;18.60;96.70
45115;DHT22;30877;43.706;10.780;2023-10-19T06:02:53;18.70;96.70
45115;DHT22;30877;43.706;10.780;2023-10-19T06:05:21;18.70;96.70
45115;DHT22;30877;43.706;10.780;2023-10-19T06:07:52;18.70;96.70
45115;DHT22;30877;43.706;10.780;2023-10-19T06:10:21;18.70;96.70
45115;DHT22;30877;43.706;10.780;2023-10-19T06:12:51;18.70;96.70
45115;DHT22;30877;43.706;10.780;2023-10-19T06:15:20;18.70;96.70
45115;DHT22;30877;43.706;10.780;2023-10-19T06:17:50;18.80;96.70
45115;DHT22;30877;43.706;10.780;2023-10-19T06:20:18;18.80;96.70
45115;DHT22;30877;43.706;10.780;2023-10-19T06:22:56;18.80;96.70
45115;DHT22;30877;43.706;10.780;2023-10-19T06:25:28;18.90;96.70
45115;DHT22;30877;43.706;10.780;2023-10-19T06:27:56;18.80;96.70
45115;DHT22;30877;43.706;10.780;2023-10-19T06:30:25;18.90;96.70
45115;DHT22;30877;43.706;10.780;2023-10-19T06:32:55;18.90;96.70
45115;DHT22;30877;43.706;10.780;2023-10-19T06:35:23;18.90;96.70
45115;DHT22;30877;43.706;10.780;2023-10-19T06:37:53;18.90;96.70
45115;DHT22;30877;43.706;10.780;2023-10-19T06:40:24;19.00;96.70
45115;DHT22;30877;43.706;10.780;2023-10-19T06:42:55;19.00;96.70
45115;DHT22;30877;43.706;10.780;2023-10-19T06:45:24;19.00;96.70
45115;DHT22;30877;43.706;10.780;2023-10-19T06:47:53;19.00;96.70
45115;DHT22;30877;43.706;10.780;2023-10-19T06:50:22;19.10;96.70
45115;DHT22;30877;43.706;10.780;2023-10-19T06:52:51;19.10;96.70
45115;DHT22;30877;43.706;10.780;2023-10-19T06:55:19;19.20;96.70
45115;DHT22;30877;43.706;10.780;2023-10-19T06:57:50;19.20;96.70
45115;DHT22;30877;43.706;10.780;2023-10-19T07:00:19;19.20;96.70
45115;DHT22;30877;43.706;10.780;2023-10-19T07:02:48;19.30;96.70
45115;DHT22;30877;43.706;10.780;2023-10-19T07:05:19;19.30;96.70
45115;DHT22;30877;43.706;10.780;2023-10-19T07:07:52;19.40;96.70
45115;DHT22;30877;43.706;10.780;2023-10-19T07:10:23;19.40;96.70
45115;DHT22;30877;43.706;10.780;2023-10-19T07:12:55;19.50;96.70
45115;DHT22;30877;43.706;10.780;2023-10-19T07:15:23;19.50;96.70
45115;DHT22;30877;43.706;10.780;2023-10-19T07:17:53;19.60;96.70
45115;DHT22;30877;43.706;10.780;2023-10-19T07:20:24;19.70;96.70
45115;DHT22;30877;43.706;10.780;2023-10-19T07:23:04;19.80;96.70
45115;DHT22;30877;43.706;10.780;2023-10-19T07:25:46;20.00;96.70
45115;DHT22;30877;43.706;10.780;2023-10-19T07:28:24;20.10;96.70
45115;DHT22;30877;43.706;10.780;2023-10-19T07:30:54;20.10;96.70
45115;DHT22;30877;43.706;10.780;2023-10-19T07:33:22;20.20;96.70
45115;DHT22;30877;43.706;10.780;2023-10-19T07:35:50;20.20;96.70
45115;DHT22;30877;43.706;10.780;2023-10-19T07:38:28;20.20;96.70
45115;DHT22;30877;43.706;10.780;2023-10-19T07:40:58;20.30;96.70
45115;DHT22;30877;43.706;10.780;2023-10-19T07:43:28;20.40;96.70
45115;DHT22;30877;43.706;10.780;2023-10-19T07:45:57;20.30;96.70
45115;DHT22;30877;43.706;10.780;2023-10-19T07:48:25;20.40;96.70
45115;DHT22;30877;43.706;10.780;2023-10-19T07:50:54;20.60;96.70
45115;DHT22;30877;43.706;10.780;2023-10-19T07:53:22;20.70;96.70
45115;DHT22;30877;43.706;10.780;2023-10-19T07:55:50;20.80;96.70
45115;DHT22;30877;43.706;10.780;2023-10-19T07:58:18;20.80;96.70
45115;DHT22;30877;43.706;10.780;2023-10-19T08:00:48;21.00;96.70
45115;DHT22;30877;43.706;10.780;2023-10-19T08:03:16;20.90;96.70
45115;DHT22;30877;43.706;10.780;2023-10-19T08:05:44;20.90;96.70
45115;DHT22;30877;43.706;10.780;2023-10-19T08:08:12;20.80;96.70
45115;DHT22;30877;43.706;10.780;2023-10-19T08:10:40;20.80;96.70
45115;DHT22;30877;43.706;10.780;2023-10-19T08:13:08;20.70;96.70
45115;DHT22;30877;43.706;10.780;2023-10-19T08:15:36;20.80;96.70
45115;DHT22;30877;43.706;10.780;2023-10-19T08:18:06;20.80;96.70
45115;DHT22;30877;43.706;10.780;2023-10-19T08:20:34;20.80;96.70
45115;DHT22;30877;43.706;10.780;2023-10-19T08:23:05;20.70;96.70
45115;DHT22;30877;43.706;10.780;2023-10-19T08:25:33;20.80;96.70
45115;DHT22;30877;43.706;10.780;2023-10-19T08:28:21;20.90;96.70
45115;DHT22;30877;43.706;10.780;2023-10-19T08:30:50;21.10;96.70
45115;DHT22;30877;43.706;10.780;2023-10-19T08:33:27;21.10;96.70
45115;DHT22;30877;43.706;10.780;2023-10-19T08:35:56;21.10;96.70
45115;DHT22;30877;43.706;10.780;2023-10-19T08:38:28;21.10;96.70
45115;DHT22;30877;43.706;10.780;2023-10-19T08:40:56;21.10;96.70
45115;DHT22;30877;43.706;10.780;2023-10-19T08:43:25;21.10;96.70
45115;DHT22;30877;43.706;10.780;2023-10-19T08:45:54;21.20;96.70
45115;DHT22;30877;43.706;10.780;2023-10-19T08:48:22;21.20;96.70
45115;DHT22;30877;43.706;10.780;2023-10-19T08:50:53;21.30;96.70
45115;DHT22;30877;43.706;10.780;2023-10-19T08:53:24;21.30;96.70
45115;DHT22;30877;43.706;10.780;2023-10-19T08:55:53;21.30;96.70
45115;DHT22;30877;43.706;10.780;2023-10-19T08:58:23;21.50;96.70
45115;DHT22;30877;43.706;10.780;2023-10-19T09:00:51;21.50;96.70
45115;DHT22;30877;43.706;10.780;2023-10-19T09:03:24;21.50;96.70
45115;DHT22;30877;43.706;10.780;2023-10-19T09:05:55;21.60;96.70
45115;DHT22;30877;43.706;10.780;2023-10-19T09:08:24;21.80;96.70
45115;DHT22;30877;43.706;10.780;2023-10-19T09:10:52;21.90;96.70
45115;DHT22;30877;43.706;10.780;2023-10-19T09:13:26;22.00;96.70
45115;DHT22;30877;43.706;10.780;2023-10-19T09:15:54;22.10;96.70
45115;DHT22;30877;43.706;10.780;2023-10-19T09:18:32;22.20;96.70
45115;DHT22;30877;43.706;10.780;2023-10-19T09:21:03;22.40;96.70
45115;DHT22;30877;43.706;10.780;2023-10-19T09:23:35;22.50;96.70
45115;DHT22;30877;43.706;10.780;2023-10-19T09:26:05;22.60;96.70
45115;DHT22;30877;43.706;10.780;2023-10-19T09:28:35;22.70;96.70
45115;DHT22;30877;43.706;10.780;2023-10-19T09:31:04;22.70;96.70
45115;DHT22;30877;43.706;10.780;2023-10-19T09:33:33;22.60;96.70
45115;DHT22;30877;43.706;10.780;2023-10-19T09:36:04;22.70;96.70
45115;DHT22;30877;43.706;10.780;2023-10-19T09:38:33;22.70;96.70
45115;DHT22;30877;43.706;10.780;2023-10-19T09:41:02;22.70;96.70
45115;DHT22;30877;43.706;10.780;2023-10-19T09:43:35;22.60;96.70
45115;DHT22;30877;43.706;10.780;2023-10-19T09:46:07;22.50;96.70
45115;DHT22;30877;43.706;10.780;2023-10-19T09:48:45;22.50;96.70
45115;DHT22;30877;43.706;10.780;2023-10-19T09:51:18;22.40;96.70
45115;DHT22;30877;43.706;10.780;2023-10-19T09:53:51;22.40;96.70
45115;DHT22;30877;43.706;10.780;2023-10-19T09:56:37;22.30;96.70
45115;DHT22;30877;43.706;10.780;2023-10-19T09:59:16;22.30;96.70
45115;DHT22;30877;43.706;10.780;2023-10-19T10:02:08;22.30;96.70
45115;DHT22;30877;43.706;10.780;2023-10-19T10:04:36;22.30;96.70
45115;DHT22;30877;43.706;10.780;2023-10-19T10:07:07;22.30;96.70
45115;DHT22;30877;43.706;10.780;2023-10-19T10:09:37;22.20;96.70
45115;DHT22;30877;43.706;10.780;2023-10-19T10:12:19;22.10;96.70
45115;DHT22;30877;43.706;10.780;2023-10-19T10:14:56;22.00;96.70
45115;DHT22;30877;43.706;10.780;2023-10-19T10:17:27;22.00;96.70
45115;DHT22;30877;43.706;10.780;2023-10-19T10:20:29;22.00;96.70
45115;DHT22;30877;43.706;10.780;2023-10-19T10:23:19;21.90;96.70
45115;DHT22;30877;43.706;10.780;2023-10-19T10:25:52;21.90;96.70
45115;DHT22;30877;43.706;10.780;2023-10-19T10:28:21;21.80;96.70
45115;DHT22;30877;43.706;10.780;2023-10-19T10:31:13;21.80;96.70
45115;DHT22;30877;43.706;10.780;2023-10-19T10:33:43;21.80;96.70
45115;DHT22;30877;43.706;10.780;2023-10-19T10:36:15;21.80;96.70
45115;DHT22;30877;43.706;10.780;2023-10-19T10:38:46;21.70;96.70
45115;DHT22;30877;43.706;10.780;2023-10-19T10:41:21;21.60;96.70
45115;DHT22;30877;43.706;10.780;2023-10-19T10:43:51;21.60;96.70
45115;DHT22;30877;43.706;10.780;2023-10-19T10:46:22;21.50;96.70
45115;DHT22;30877;43.706;10.780;2023-10-19T10:48:50;21.40;96.70
45115;DHT22;30877;43.706;10.780;2023-10-19T10:51:20;21.30;96.70
45115;DHT22;30877;43.706;10.780;2023-10-19T10:53:54;21.20;96.70
45115;DHT22;30877;43.706;10.780;2023-10-19T10:56:23;21.30;96.70
45115;DHT22;30877;43.706;10.780;2023-10-19T10:58:51;21.40;96.70
45115;DHT22;30877;43.706;10.780;2023-10-19T11:01:37;21.60;96.70
45115;DHT22;30877;43.706;10.780;2023-10-19T11:04:07;21.80;96.70
45115;DHT22;30877;43.706;10.780;2023-10-19T11:06:47;21.80;96.70
45115;DHT22;30877;43.706;10.780;2023-10-19T11:09:18;21.80;96.70
45115;DHT22;30877;43.706;10.780;2023-10-19T11:11:46;21.90;96.70
45115;DHT22;30877;43.706;10.780;2023-10-19T11:14:14;21.80;96.70
45115;DHT22;30877;43.706;10.780;2023-10-19T11:16:43;21.80;96.70
45115;DHT22;30877;43.706;10.780;2023-10-19T11:19:11;21.90;96.70
45115;DHT22;30877;43.706;10.780;2023-10-19T11:21:52;22.10;96.70
45115;DHT22;30877;43.706;10.780;2023-10-19T11:24:26;22.40;96.70
45115;DHT22;30877;43.706;10.780;2023-10-19T11:26:54;22.50;96.70
45115;DHT22;30877;43.706;10.780;2023-10-19T11:29:23;22.80;96.70
45115;DHT22;30877;43.706;10.780;2023-10-19T11:31:58;23.10;96.70
45115;DHT22;30877;43.706;10.780;2023-10-19T11:34:28;23.30;96.70
45115;DHT22;30877;43.706;10.780;2023-10-19T11:36:58;23.50;96.70
45115;DHT22;30877;43.706;10.780;2023-10-19T11:39:32;23.60;96.70
45115;DHT22;30877;43.706;10.780;2023-10-19T11:42:00;23.80;96.70
45115;DHT22;30877;43.706;10.780;2023-10-19T11:44:30;23.90;96.70
45115;DHT22;30877;43.706;10.780;2023-10-19T11:46:59;23.90;96.70
45115;DHT22;30877;43.706;10.780;2023-10-19T11:49:27;23.90;96.70
45115;DHT22;30877;43.706;10.780;2023-10-19T11:51:55;23.90;96.70
45115;DHT22;30877;43.706;10.780;2023-10-19T11:54:23;23.90;96.70
45115;DHT22;30877;43.706;10.780;2023-10-19T11:56:53;23.90;96.70
45115;DHT22;30877;43.706;10.780;2023-10-19T11:59:21;23.80;96.70
45115;DHT22;30877;43.706;10.780;2023-10-19T12:01:51;23.60;96.70
45115;DHT22;30877;43.706;10.780;2023-10-19T12:04:20;23.70;96.70
45115;DHT22;30877;43.706;10.780;2023-10-19T12:06:47;23.60;96.70
45115;DHT22;30877;43.706;10.780;2023-10-19T12:09:16;23.60;96.70
45115;DHT22;30877;43.706;10.780;2023-10-19T12:11:44;23.50;96.70
45115;DHT22;30877;43.706;10.780;2023-10-19T12:14:16;23.50;96.70
45115;DHT22;30877;43.706;10.780;2023-10-19T12:16:44;23.40;96.70
45115;DHT22;30877;43.706;10.780;2023-10-19T12:19:13;23.40;96.70
45115;DHT22;30877;43.706;10.780;2023-10-19T12:21:41;23.40;96.70
45115;DHT22;30877;43.706;10.780;2023-10-19T12:24:09;23.30;96.70
45115;DHT22;30877;43.706;10.780;2023-10-19T12:26:42;23.20;96.70
45115;DHT22;30877;43.706;10.780;2023-10-19T12:29:10;23.20;96.70
45115;DHT22;30877;43.706;10.780;2023-10-19T12:31:40;23.30;96.70
45115;DHT22;30877;43.706;10.780;2023-10-19T12:34:08;23.20;96.70
45115;DHT22;30877;43.706;10.780;2023-10-19T12:36:39;23.20;96.70
45115;DHT22;30877;43.706;10.780;2023-10-19T12:39:09;23.10;96.70
45115;DHT22;30877;43.706;10.780;2023-10-19T12:41:38;23.00;96.70
45115;DHT22;30877;43.706;10.780;2023-10-19T12:44:07;23.00;96.70
45115;DHT22;30877;43.706;10.780;2023-10-19T12:46:41;23.00;96.70
45115;DHT22;30877;43.706;10.780;2023-10-19T12:49:09;23.00;96.70
45115;DHT22;30877;43.706;10.780;2023-10-19T12:51:42;23.00;96.70
45115;DHT22;30877;43.706;10.780;2023-10-19T12:54:11;23.00;96.70
45115;DHT22;30877;43.706;10.780;2023-10-19T12:56:41;22.90;96.70
45115;DHT22;30877;43.706;10.780;2023-10-19T12:59:09;22.90;96.70
45115;DHT22;30877;43.706;10.780;2023-10-19T13:01:37;22.80;96.70
45115;DHT22;30877;43.706;10.780;2023-10-19T13:04:07;22.90;96.70
45115;DHT22;30877;43.706;10.780;2023-10-19T13:06:48;22.80;96.70
45115;DHT22;30877;43.706;10.780;2023-10-19T13:09:16;22.80;96.70
45115;DHT22;30877;43.706;10.780;2023-10-19T13:11:49;22.80;96.70
45115;DHT22;30877;43.706;10.780;2023-10-19T13:14:20;22.80;96.70
45115;DHT22;30877;43.706;10.780;2023-10-19T13:16:48;22.80;96.70
45115;DHT22;30877;43.706;10.780;2023-10-19T13:19:20;22.80;96.70
45115;DHT22;30877;43.706;10.780;2023-10-19T13:21:52;22.90;96.70
45115;DHT22;30877;43.706;10.780;2023-10-19T13:24:20;23.00;96.70
45115;DHT22;30877;43.706;10.780;2023-10-19T13:26:52;23.30;96.70
45115;DHT22;30877;43.706;10.780;2023-10-19T13:29:21;23.50;96.70
45115;DHT22;30877;43.706;10.780;2023-10-19T13:31:51;23.70;96.70
45115;DHT22;30877;43.706;10.780;2023-10-19T13:34:21;23.80;96.70
45115;DHT22;30877;43.706;10.780;2023-10-19T13:36:49;23.80;96.70
45115;DHT22;30877;43.706;10.780;2023-10-19T13:39:19;23.80;96.70
45115;DHT22;30877;43.706;10.780;2023-10-19T13:41:46;23.80;96.70
45115;DHT22;30877;43.706;10.780;2023-10-19T13:44:14;23.90;96.70
45115;DHT22;30877;43.706;10.780;2023-10-19T13:46:42;24.20;96.70
45115;DHT22;30877;43.706;10.780;2023-10-19T13:49:10;24.30;96.70
45115;DHT22;30877;43.706;10.780;2023-10-19T13:51:40;24.20;96.70
45115;DHT22;30877;43.706;10.780;2023-10-19T13:54:08;24.30;96.70
45115;DHT22;30877;43.706;10.780;2023-10-19T13:56:36;24.30;96.70
45115;DHT22;30877;43.706;10.780;2023-10-19T13:59:04;24.30;96.70
45115;DHT22;30877;43.706;10.780;2023-10-19T14:01:33;24.50;96.70
45115;DHT22;30877;43.706;10.780;2023-10-19T14:04:01;24.60;96.70
45115;DHT22;30877;43.706;10.780;2023-10-19T14:06:29;24.80;96.70
45115;DHT22;30877;43.706;10.780;2023-10-19T14:08:59;24.90;96.70
45115;DHT22;30877;43.706;10.780;2023-10-19T14:11:28;24.90;96.70
45115;DHT22;30877;43.706;10.780;2023-10-19T14:13:56;24.90;96.70
45115;DHT22;30877;43.706;10.780;2023-10-19T14:16:24;24.90;96.70
45115;DHT22;30877;43.706;10.780;2023-10-19T14:18:53;25.20;96.70
45115;DHT22;30877;43.706;10.780;2023-10-19T14:21:21;25.60;96.70
45115;DHT22;30877;43.706;10.780;2023-10-19T14:23:50;25.90;96.70
45115;DHT22;30877;43.706;10.780;2023-10-19T14:26:20;26.20;96.70
45115;DHT22;30877;43.706;10.780;2023-10-19T14:28:48;26.50;96.70
45115;DHT22;30877;43.706;10.780;2023-10-19T14:31:16;26.70;96.70
45115;DHT22;30877;43.706;10.780;2023-10-19T14:33:44;26.60;96.70
45115;DHT22;30877;43.706;10.780;2023-10-19T14:36:12;26.30;96.70
45115;DHT22;30877;43.706;10.780;2023-10-19T14:38:40;25.70;96.70
45115;DHT22;30877;43.706;10.780;2023-10-19T14:41:11;25.30;96.70
45115;DHT22;30877;43.706;10.780;2023-10-19T14:43:49;25.00;96.70
45115;DHT22;30877;43.706;10.780;2023-10-19T14:46:17;24.90;96.70
45115;DHT22;30877;43.706;10.780;2023-10-19T14:48:45;24.80;96.70
45115;DHT22;30877;43.706;10.780;2023-10-19T14:51:14;24.90;96.70
45115;DHT22;30877;43.706;10.780;2023-10-19T14:53:43;25.00;96.70
45115;DHT22;30877;43.706;10.780;2023-10-19T14:56:11;25.00;96.70
45115;DHT22;30877;43.706;10.780;2023-10-19T14:58:59;25.10;96.70
45115;DHT22;30877;43.706;10.780;2023-10-19T15:01:27;24.90;96.70
45115;DHT22;30877;43.706;10.780;2023-10-19T15:03:55;24.70;96.70
45115;DHT22;30877;43.706;10.780;2023-10-19T15:06:23;24.50;96.70
45115;DHT22;30877;43.706;10.780;2023-10-19T15:08:51;24.40;96.70
45115;DHT22;30877;43.706;10.780;2023-10-19T15:11:19;24.30;96.70
45115;DHT22;30877;43.706;10.780;2023-10-19T15:13:49;24.30;96.70
45115;DHT22;30877;43.706;10.780;2023-10-19T15:16:20;24.10;96.70
45115;DHT22;30877;43.706;10.780;2023-10-19T15:18:49;24.00;96.70
45115;DHT22;30877;43.706;10.780;2023-10-19T15:21:16;23.90;96.70
45115;DHT22;30877;43.706;10.780;2023-10-19T15:23:45;23.90;96.70
45115;DHT22;30877;43.706;10.780;2023-10-19T15:26:17;23.80;96.70
45115;DHT22;30877;43.706;10.780;2023-10-19T15:28:45;23.80;96.70
45115;DHT22;30877;43.706;10.780;2023-10-19T15:31:13;23.80;96.70
45115;DHT22;30877;43.706;10.780;2023-10-19T15:33:44;23.70;96.70
45115;DHT22;30877;43.706;10.780;2023-10-19T15:36:13;23.60;96.70
45115;DHT22;30877;43.706;10.780;2023-10-19T15:38:40;23.60;96.70